sensor_id;sensor_type;location;lat;lon;timestamp;temperature;humidity
78289;DHT22;67539;48.752;12.922;2024-02-14T00:01:10;1.80;99.90
78289;DHT22;67539;48.752;12.922;2024-02-14T00:03:38;1.80;99.90
78289;DHT22;67539;48.752;12.922;2024-02-14T00:06:06;1.80;99.90
78289;DHT22;67539;48.752;12.922;2024-02-14T00:08:35;1.80;99.90
78289;DHT22;67539;48.752;12.922;2024-02-14T00:11:05;1.80;99.90
78289;DHT22;67539;48.752;12.922;2024-02-14T00:13:33;1.80;99.90
78289;DHT22;67539;48.752;12.922;2024-02-14T00:16:02;1.70;99.90
78289;DHT22;67539;48.752;12.922;2024-02-14T00:18:32;1.70;99.90
78289;DHT22;67539;48.752;12.922;2024-02-14T00:21:00;1.70;99.90
78289;DHT22;67539;48.752;12.922;2024-02-14T00:23:29;1.70;99.90
78289;DHT22;67539;48.752;12.922;2024-02-14T00:25:58;1.70;99.90
78289;DHT22;67539;48.752;12.922;2024-02-14T00:28:26;1.60;99.90
78289;DHT22;67539;48.752;12.922;2024-02-14T00:30:54;1.60;99.90
78289;DHT22;67539;48.752;12.922;2024-02-14T00:33:22;1.60;99.90
78289;DHT22;67539;48.752;12.922;2024-02-14T00:35:52;1.60;99.90
78289;DHT22;67539;48.752;12.922;2024-02-14T00:38:21;1.60;99.90
78289;DHT22;67539;48.752;12.922;2024-02-14T00:40:49;1.60;99.90
78289;DHT22;67539;48.752;12.922;2024-02-14T00:43:17;1.50;99.90
78289;DHT22;67539;48.752;12.922;2024-02-14T00:45:45;1.50;99.90
78289;DHT22;67539;48.752;12.922;2024-02-14T00:48:14;1.50;99.90
78289;DHT22;67539;48.752;12.922;2024-02-14T00:50:43;1.50;99.90
78289;DHT22;67539;48.752;12.922;2024-02-14T00:53:13;1.50;99.90
78289;DHT22;67539;48.752;12.922;2024-02-14T00:55:41;1.50;99.90
78289;DHT22;67539;48.752;12.922;2024-02-14T00:58:09;1.40;99.90
78289;DHT22;67539;48.752;12.922;2024-02-14T01:00:37;1.40;99.90
78289;DHT22;67539;48.752;12.922;2024-02-14T01:03:06;1.40;99.90
78289;DHT22;67539;48.752;12.922;2024-02-14T01:05:35;1.40;99.90
78289;DHT22;67539;48.752;12.922;2024-02-14T01:08:04;1.40;99.90
78289;DHT22;67539;48.752;12.922;2024-02-14T01:10:33;1.40;99.90
78289;DHT22;67539;48.752;12.922;2024-02-14T01:13:02;1.40;99.90
78289;DHT22;67539;48.752;12.922;2024-02-14T01:15:30;1.40;99.90
78289;DHT22;67539;48.752;12.922;2024-02-14T01:17:58;1.40;99.90
78289;DHT22;67539;48.752;12.922;2024-02-14T01:20:27;1.40;99.90
78289;DHT22;67539;48.752;12.922;2024-02-14T01:22:55;1.40;99.90
78289;DHT22;67539;48.752;12.922;2024-02-14T01:25:23;1.40;99.90
78289;DHT22;67539;48.752;12.922;2024-02-14T01:27:53;1.40;99.90
78289;DHT22;67539;48.752;12.922;2024-02-14T01:30:21;1.40;99.90
78289;DHT22;67539;48.752;12.922;2024-02-14T01:32:51;1.40;99.90
78289;DHT22;67539;48.752;12.922;2024-02-14T01:35:20;1.30;99.90
78289;DHT22;67539;48.752;12.922;2024-02-14T01:37:49;1.30;99.90
78289;DHT22;67539;48.752;12.922;2024-02-14T01:40:19;1.30;99.90
78289;DHT22;67539;48.752;12.922;2024-02-14T01:42:47;1.30;99.90
78289;DHT22;67539;48.752;12.922;2024-02-14T01:45:16;1.30;99.90
78289;DHT22;67539;48.752;12.922;2024-02-14T01:47:45;1.20;99.90
78289;DHT22;67539;48.752;12.922;2024-02-14T01:50:13;1.20;99.90
78289;DHT22;67539;48.752;12.922;2024-02-14T01:52:42;1.20;99.90
78289;DHT22;67539;48.752;12.922;2024-02-14T01:55:12;1.20;99.90
78289;DHT22;67539;48.752;12.922;2024-02-14T01:57:41;1.20;99.90
78289;DHT22;67539;48.752;12.922;2024-02-14T02:00:10;1.20;99.90
78289;DHT22;67539;48.752;12.922;2024-02-14T02:02:46;1.10;99.90
78289;DHT22;67539;48.752;12.922;2024-02-14T02:05:19;1.10;99.90
78289;DHT22;67539;48.752;12.922;2024-02-14T02:07:48;1.10;99.90
78289;DHT22;67539;48.752;12.922;2024-02-14T02:10:16;1.10;99.90
78289;DHT22;67539;48.752;12.922;2024-02-14T02:12:44;1.10;99.90
78289;DHT22;67539;48.752;12.922;2024-02-14T02:15:12;1.20;99.90
78289;DHT22;67539;48.752;12.922;2024-02-14T02:17:42;1.20;99.90
78289;DHT22;67539;48.752;12.922;2024-02-14T02:20:15;1.10;99.90
78289;DHT22;67539;48.752;12.922;2024-02-14T02:22:46;1.20;99.90
78289;DHT22;67539;48.752;12.922;2024-02-14T02:25:15;1.20;99.90
78289;DHT22;67539;48.752;12.922;2024-02-14T02:27:44;1.20;99.90
78289;DHT22;67539;48.752;12.922;2024-02-14T02:30:13;1.20;99.90
78289;DHT22;67539;48.752;12.922;2024-02-14T02:32:42;1.30;99.90
78289;DHT22;67539;48.752;12.922;2024-02-14T02:35:11;1.30;99.90
78289;DHT22;67539;48.752;12.922;2024-02-14T02:37:39;1.40;99.90
78289;DHT22;67539;48.752;12.922;2024-02-14T02:40:10;1.40;99.90
78289;DHT22;67539;48.752;12.922;2024-02-14T02:42:39;1.40;99.90
78289;DHT22;67539;48.752;12.922;2024-02-14T02:45:08;1.50;99.90
78289;DHT22;67539;48.752;12.922;2024-02-14T02:47:37;1.50;99.90
78289;DHT22;67539;48.752;12.922;2024-02-14T02:50:06;1.50;99.90
78289;DHT22;67539;48.752;12.922;2024-02-14T02:52:34;1.60;99.90
78289;DHT22;67539;48.752;12.922;2024-02-14T02:55:03;1.60;99.90
78289;DHT22;67539;48.752;12.922;2024-02-14T02:57:33;1.60;99.90
78289;DHT22;67539;48.752;12.922;2024-02-14T03:00:06;1.70;99.90
78289;DHT22;67539;48.752;12.922;2024-02-14T03:02:35;1.70;99.90
78289;DHT22;67539;48.752;12.922;2024-02-14T03:05:05;1.70;99.90
78289;DHT22;67539;48.752;12.922;2024-02-14T03:07:37;1.80;99.90
78289;DHT22;67539;48.752;12.922;2024-02-14T03:10:06;1.80;99.90
78289;DHT22;67539;48.752;12.922;2024-02-14T03:12:36;1.80;99.90
78289;DHT22;67539;48.752;12.922;2024-02-14T03:15:06;1.80;99.90
78289;DHT22;67539;48.752;12.922;2024-02-14T03:17:37;1.80;99.90
78289;DHT22;67539;48.752;12.922;2024-02-14T03:20:06;1.80;99.90
78289;DHT22;67539;48.752;12.922;2024-02-14T03:22:44;1.90;99.90
78289;DHT22;67539;48.752;12.922;2024-02-14T03:25:13;1.90;99.90
78289;DHT22;67539;48.752;12.922;2024-02-14T03:27:45;1.90;99.90
78289;DHT22;67539;48.752;12.922;2024-02-14T03:30:14;1.90;99.90
78289;DHT22;67539;48.752;12.922;2024-02-14T03:32:45;2.00;99.90
78289;DHT22;67539;48.752;12.922;2024-02-14T03:35:14;2.00;99.90
78289;DHT22;67539;48.752;12.922;2024-02-14T03:37:45;2.00;99.90
78289;DHT22;67539;48.752;12.922;2024-02-14T03:40:15;2.00;99.90
78289;DHT22;67539;48.752;12.922;2024-02-14T03:42:45;2.00;99.90
78289;DHT22;67539;48.752;12.922;2024-02-14T03:45:14;2.10;99.90
78289;DHT22;67539;48.752;12.922;2024-02-14T03:47:42;2.10;99.90
78289;DHT22;67539;48.752;12.922;2024-02-14T03:50:10;2.10;99.90
78289;DHT22;67539;48.752;12.922;2024-02-14T03:52:38;2.10;99.90
78289;DHT22;67539;48.752;12.922;2024-02-14T03:55:09;2.10;99.90
78289;DHT22;67539;48.752;12.922;2024-02-14T03:57:40;2.10;99.90
78289;DHT22;67539;48.752;12.922;2024-02-14T04:00:11;2.10;99.90
78289;DHT22;67539;48.752;12.922;2024-02-14T04:02:40;2.10;99.90
78289;DHT22;67539;48.752;12.922;2024-02-14T04:05:08;2.10;99.90
78289;DHT22;67539;48.752;12.922;2024-02-14T04:07:37;2.10;99.90
78289;DHT22;67539;48.752;12.922;2024-02-14T04:10:06;2.10;99.90
78289;DHT22;67539;48.752;12.922;2024-02-14T04:12:35;2.10;99.90
78289;DHT22;67539;48.752;12.922;2024-02-14T04:15:05;2.00;99.90
78289;DHT22;67539;48.752;12.922;2024-02-14T04:17:35;2.00;99.90
78289;DHT22;67539;48.752;12.922;2024-02-14T04:20:04;2.00;99.90
78289;DHT22;67539;48.752;12.922;2024-02-14T04:22:33;2.00;99.90
78289;DHT22;67539;48.752;12.922;2024-02-14T04:25:01;2.00;99.90
78289;DHT22;67539;48.752;12.922;2024-02-14T04:27:29;2.00;99.90
78289;DHT22;67539;48.752;12.922;2024-02-14T04:29:57;1.90;99.90
78289;DHT22;67539;48.752;12.922;2024-02-14T04:32:26;1.90;99.90
78289;DHT22;67539;48.752;12.922;2024-02-14T04:34:56;1.90;99.90
78289;DHT22;67539;48.752;12.922;2024-02-14T04:37:25;1.90;99.90
78289;DHT22;67539;48.752;12.922;2024-02-14T04:39:53;1.90;99.90
78289;DHT22;67539;48.752;12.922;2024-02-14T04:42:22;2.00;99.90
78289;DHT22;67539;48.752;12.922;2024-02-14T04:44:50;2.00;99.90
78289;DHT22;67539;48.752;12.922;2024-02-14T04:47:18;2.00;99.90
78289;DHT22;67539;48.752;12.922;2024-02-14T04:49:47;2.00;99.90
78289;DHT22;67539;48.752;12.922;2024-02-14T04:52:17;2.00;99.90
78289;DHT22;67539;48.752;12.922;2024-02-14T04:54:45;2.10;99.90
78289;DHT22;67539;48.752;12.922;2024-02-14T04:57:17;2.10;99.90
78289;DHT22;67539;48.752;12.922;2024-02-14T04:59:47;2.20;99.90
78289;DHT22;67539;48.752;12.922;2024-02-14T05:02:15;2.10;99.90
78289;DHT22;67539;48.752;12.922;2024-02-14T05:04:44;2.10;99.90
78289;DHT22;67539;48.752;12.922;2024-02-14T05:07:12;2.20;99.90
78289;DHT22;67539;48.752;12.922;2024-02-14T05:09:41;2.20;99.90
78289;DHT22;67539;48.752;12.922;2024-02-14T05:12:11;2.20;99.90
78289;DHT22;67539;48.752;12.922;2024-02-14T05:14:39;2.20;99.90
78289;DHT22;67539;48.752;12.922;2024-02-14T05:17:08;2.20;99.90
78289;DHT22;67539;48.752;12.922;2024-02-14T05:19:36;2.10;99.90
78289;DHT22;67539;48.752;12.922;2024-02-14T05:22:04;2.10;99.90
78289;DHT22;67539;48.752;12.922;2024-02-14T05:24:32;2.10;99.90
78289;DHT22;67539;48.752;12.922;2024-02-14T05:27:04;2.00;99.90
78289;DHT22;67539;48.752;12.922;2024-02-14T05:29:33;2.00;99.90
78289;DHT22;67539;48.752;12.922;2024-02-14T05:32:03;2.00;99.90
78289;DHT22;67539;48.752;12.922;2024-02-14T05:34:31;1.90;99.90
78289;DHT22;67539;48.752;12.922;2024-02-14T05:37:01;1.90;99.90
78289;DHT22;67539;48.752;12.922;2024-02-14T05:39:29;1.80;99.90
78289;DHT22;67539;48.752;12.922;2024-02-14T05:41:57;1.80;99.90
78289;DHT22;67539;48.752;12.922;2024-02-14T05:44:28;1.80;99.90
78289;DHT22;67539;48.752;12.922;2024-02-14T05:46:57;1.80;99.90
78289;DHT22;67539;48.752;12.922;2024-02-14T05:49:25;1.70;99.90
78289;DHT22;67539;48.752;12.922;2024-02-14T05:51:54;1.80;99.90
78289;DHT22;67539;48.752;12.922;2024-02-14T05:54:22;1.70;99.90
78289;DHT22;67539;48.752;12.922;2024-02-14T05:56:50;1.70;99.90
78289;DHT22;67539;48.752;12.922;2024-02-14T05:59:19;1.70;99.90
78289;DHT22;67539;48.752;12.922;2024-02-14T06:01:49;1.80;99.90
78289;DHT22;67539;48.752;12.922;2024-02-14T06:04:18;1.70;99.90
78289;DHT22;67539;48.752;12.922;2024-02-14T06:06:46;1.70;99.90
78289;DHT22;67539;48.752;12.922;2024-02-14T06:09:14;1.60;99.90
78289;DHT22;67539;48.752;12.922;2024-02-14T06:11:42;1.60;99.90
78289;DHT22;67539;48.752;12.922;2024-02-14T06:14:11;1.60;99.90
78289;DHT22;67539;48.752;12.922;2024-02-14T06:16:39;1.60;99.90
78289;DHT22;67539;48.752;12.922;2024-02-14T06:19:09;1.50;99.90
78289;DHT22;67539;48.752;12.922;2024-02-14T06:21:38;1.50;99.90
78289;DHT22;67539;48.752;12.922;2024-02-14T06:24:06;1.50;99.90
78289;DHT22;67539;48.752;12.922;2024-02-14T06:26:37;1.40;99.90
78289;DHT22;67539;48.752;12.922;2024-02-14T06:29:06;1.40;99.90
78289;DHT22;67539;48.752;12.922;2024-02-14T06:31:34;1.40;99.90
78289;DHT22;67539;48.752;12.922;2024-02-14T06:34:02;1.30;99.90
78289;DHT22;67539;48.752;12.922;2024-02-14T06:36:32;1.40;99.90
78289;DHT22;67539;48.752;12.922;2024-02-14T06:39:00;1.30;99.90
78289;DHT22;67539;48.752;12.922;2024-02-14T06:41:28;1.40;99.90
78289;DHT22;67539;48.752;12.922;2024-02-14T06:43:58;1.40;99.90
78289;DHT22;67539;48.752;12.922;2024-02-14T06:46:26;1.40;99.90
78289;DHT22;67539;48.752;12.922;2024-02-14T06:48:55;1.40;99.90
78289;DHT22;67539;48.752;12.922;2024-02-14T06:51:24;1.50;99.90
78289;DHT22;67539;48.752;12.922;2024-02-14T06:53:54;1.50;99.90
78289;DHT22;67539;48.752;12.922;2024-02-14T06:56:22;1.50;99.90
78289;DHT22;67539;48.752;12.922;2024-02-14T06:58:50;1.50;99.90
78289;DHT22;67539;48.752;12.922;2024-02-14T07:01:21;1.60;99.90
78289;DHT22;67539;48.752;12.922;2024-02-14T07:03:49;1.60;99.90
78289;DHT22;67539;48.752;12.922;2024-02-14T07:06:18;1.70;99.90
78289;DHT22;67539;48.752;12.922;2024-02-14T07:08:46;1.80;99.90
78289;DHT22;67539;48.752;12.922;2024-02-14T07:11:17;1.80;99.90
78289;DHT22;67539;48.752;12.922;2024-02-14T07:13:45;1.90;99.90
78289;DHT22;67539;48.752;12.922;2024-02-14T07:16:13;2.00;99.90
78289;DHT22;67539;48.752;12.922;2024-02-14T07:18:42;2.10;99.90
78289;DHT22;67539;48.752;12.922;2024-02-14T07:21:10;2.10;99.90
78289;DHT22;67539;48.752;12.922;2024-02-14T07:23:39;2.20;99.90
78289;DHT22;67539;48.752;12.922;2024-02-14T07:26:07;2.30;99.90
78289;DHT22;67539;48.752;12.922;2024-02-14T07:28:37;2.30;99.90
78289;DHT22;67539;48.752;12.922;2024-02-14T07:31:05;2.40;99.90
78289;DHT22;67539;48.752;12.922;2024-02-14T07:33:33;2.50;99.90
78289;DHT22;67539;48.752;12.922;2024-02-14T07:36:02;2.60;99.90
78289;DHT22;67539;48.752;12.922;2024-02-14T07:38:30;2.60;99.90
78289;DHT22;67539;48.752;12.922;2024-02-14T07:40:58;2.70;99.90
78289;DHT22;67539;48.752;12.922;2024-02-14T07:43:27;2.80;99.90
78289;DHT22;67539;48.752;12.922;2024-02-14T07:45:56;2.80;99.90
78289;DHT22;67539;48.752;12.922;2024-02-14T07:48:25;2.90;99.90
78289;DHT22;67539;48.752;12.922;2024-02-14T07:50:53;2.90;99.90
78289;DHT22;67539;48.752;12.922;2024-02-14T07:53:23;3.00;99.90
78289;DHT22;67539;48.752;12.922;2024-02-14T07:55:51;3.10;99.90
78289;DHT22;67539;48.752;12.922;2024-02-14T07:58:19;3.10;99.90
78289;DHT22;67539;48.752;12.922;2024-02-14T08:00:47;3.20;99.90
78289;DHT22;67539;48.752;12.922;2024-02-14T08:03:17;3.20;99.90
78289;DHT22;67539;48.752;12.922;2024-02-14T08:05:45;3.30;99.90
78289;DHT22;67539;48.752;12.922;2024-02-14T08:08:13;3.30;99.90
78289;DHT22;67539;48.752;12.922;2024-02-14T08:10:42;3.40;99.90
78289;DHT22;67539;48.752;12.922;2024-02-14T08:13:10;3.40;99.90
78289;DHT22;67539;48.752;12.922;2024-02-14T08:15:42;3.50;99.90
78289;DHT22;67539;48.752;12.922;2024-02-14T08:18:10;3.60;99.90
78289;DHT22;67539;48.752;12.922;2024-02-14T08:20:41;3.60;99.90
78289;DHT22;67539;48.752;12.922;2024-02-14T08:23:09;3.70;99.90
78289;DHT22;67539;48.752;12.922;2024-02-14T08:25:38;3.80;99.90
78289;DHT22;67539;48.752;12.922;2024-02-14T08:28:08;3.80;99.90
78289;DHT22;67539;48.752;12.922;2024-02-14T08:30:37;3.90;99.90
78289;DHT22;67539;48.752;12.922;2024-02-14T08:33:05;4.00;99.90
78289;DHT22;67539;48.752;12.922;2024-02-14T08:35:34;4.00;99.90
78289;DHT22;67539;48.752;12.922;2024-02-14T08:38:10;4.10;99.90
78289;DHT22;67539;48.752;12.922;2024-02-14T08:40:38;4.20;99.90
78289;DHT22;67539;48.752;12.922;2024-02-14T08:43:06;4.30;99.90
78289;DHT22;67539;48.752;12.922;2024-02-14T08:45:34;4.40;99.90
78289;DHT22;67539;48.752;12.922;2024-02-14T08:48:06;4.50;99.90
78289;DHT22;67539;48.752;12.922;2024-02-14T08:50:34;4.50;99.90
78289;DHT22;67539;48.752;12.922;2024-02-14T08:53:03;4.60;99.90
78289;DHT22;67539;48.752;12.922;2024-02-14T08:55:33;4.70;99.90
78289;DHT22;67539;48.752;12.922;2024-02-14T08:58:01;4.80;99.90
78289;DHT22;67539;48.752;12.922;2024-02-14T09:00:30;4.90;99.90
78289;DHT22;67539;48.752;12.922;2024-02-14T09:02:58;5.00;99.90
78289;DHT22;67539;48.752;12.922;2024-02-14T09:05:27;5.00;99.90
78289;DHT22;67539;48.752;12.922;2024-02-14T09:07:57;5.10;99.90
78289;DHT22;67539;48.752;12.922;2024-02-14T09:10:26;5.10;99.90
78289;DHT22;67539;48.752;12.922;2024-02-14T09:12:55;5.20;99.90
78289;DHT22;67539;48.752;12.922;2024-02-14T09:15:23;5.30;99.90
78289;DHT22;67539;48.752;12.922;2024-02-14T09:17:53;5.30;99.90
78289;DHT22;67539;48.752;12.922;2024-02-14T09:20:22;5.30;99.90
78289;DHT22;67539;48.752;12.922;2024-02-14T09:22:50;5.40;99.90
78289;DHT22;67539;48.752;12.922;2024-02-14T09:25:20;5.40;99.90
78289;DHT22;67539;48.752;12.922;2024-02-14T09:27:50;5.40;99.90
78289;DHT22;67539;48.752;12.922;2024-02-14T09:30:20;5.50;99.90
78289;DHT22;67539;48.752;12.922;2024-02-14T09:33:04;5.60;99.90
78289;DHT22;67539;48.752;12.922;2024-02-14T09:35:32;5.70;99.90
78289;DHT22;67539;48.752;12.922;2024-02-14T09:38:02;5.90;99.90
78289;DHT22;67539;48.752;12.922;2024-02-14T09:40:30;6.00;99.90
78289;DHT22;67539;48.752;12.922;2024-02-14T09:43:03;6.20;99.90
78289;DHT22;67539;48.752;12.922;2024-02-14T09:45:34;6.40;99.90
78289;DHT22;67539;48.752;12.922;2024-02-14T09:48:02;6.60;99.90
78289;DHT22;67539;48.752;12.922;2024-02-14T09:50:32;6.70;99.90
78289;DHT22;67539;48.752;12.922;2024-02-14T09:53:02;6.90;99.90
78289;DHT22;67539;48.752;12.922;2024-02-14T09:55:32;7.00;99.90
78289;DHT22;67539;48.752;12.922;2024-02-14T09:58:01;7.10;99.90
78289;DHT22;67539;48.752;12.922;2024-02-14T10:00:35;7.20;99.90
78289;DHT22;67539;48.752;12.922;2024-02-14T10:03:04;7.20;99.90
78289;DHT22;67539;48.752;12.922;2024-02-14T10:05:33;7.30;99.90
78289;DHT22;67539;48.752;12.922;2024-02-14T10:08:03;7.30;99.90
78289;DHT22;67539;48.752;12.922;2024-02-14T10:10:32;7.40;99.90
78289;DHT22;67539;48.752;12.922;2024-02-14T10:13:04;7.50;99.90
78289;DHT22;67539;48.752;12.922;2024-02-14T10:15:34;7.60;99.90
78289;DHT22;67539;48.752;12.922;2024-02-14T10:18:02;7.80;99.90
78289;DHT22;67539;48.752;12.922;2024-02-14T10:20:31;7.80;99.90
78289;DHT22;67539;48.752;12.922;2024-02-14T10:23:02;7.90;99.90
78289;DHT22;67539;48.752;12.922;2024-02-14T10:25:30;7.90;99.90
78289;DHT22;67539;48.752;12.922;2024-02-14T10:28:03;8.00;99.90
78289;DHT22;67539;48.752;12.922;2024-02-14T10:30:33;8.10;99.90
78289;DHT22;67539;48.752;12.922;2024-02-14T10:33:02;8.10;99.90
78289;DHT22;67539;48.752;12.922;2024-02-14T10:35:47;8.20;99.90
78289;DHT22;67539;48.752;12.922;2024-02-14T10:38:17;8.30;99.90
78289;DHT22;67539;48.752;12.922;2024-02-14T10:40:47;8.30;99.90
78289;DHT22;67539;48.752;12.922;2024-02-14T10:43:16;8.30;99.90
78289;DHT22;67539;48.752;12.922;2024-02-14T10:45:46;8.40;99.90
78289;DHT22;67539;48.752;12.922;2024-02-14T10:48:15;8.40;99.90
78289;DHT22;67539;48.752;12.922;2024-02-14T10:50:44;8.50;99.90
78289;DHT22;67539;48.752;12.922;2024-02-14T10:53:14;8.60;99.90
78289;DHT22;67539;48.752;12.922;2024-02-14T10:55:46;8.70;99.90
78289;DHT22;67539;48.752;12.922;2024-02-14T10:58:16;8.80;99.90
78289;DHT22;67539;48.752;12.922;2024-02-14T11:00:46;8.90;99.90
78289;DHT22;67539;48.752;12.922;2024-02-14T11:03:15;9.00;99.90
78289;DHT22;67539;48.752;12.922;2024-02-14T11:05:46;9.00;99.90
78289;DHT22;67539;48.752;12.922;2024-02-14T11:08:14;9.10;99.90
78289;DHT22;67539;48.752;12.922;2024-02-14T11:10:43;9.20;99.90
78289;DHT22;67539;48.752;12.922;2024-02-14T11:13:12;9.30;99.90
78289;DHT22;67539;48.752;12.922;2024-02-14T11:15:45;9.30;99.90
78289;DHT22;67539;48.752;12.922;2024-02-14T11:18:25;9.40;99.90
78289;DHT22;67539;48.752;12.922;2024-02-14T11:20:54;9.40;99.90
78289;DHT22;67539;48.752;12.922;2024-02-14T11:23:24;9.30;99.90
78289;DHT22;67539;48.752;12.922;2024-02-14T11:26:00;9.30;99.90
78289;DHT22;67539;48.752;12.922;2024-02-14T11:28:29;9.30;99.90
78289;DHT22;67539;48.752;12.922;2024-02-14T11:31:00;9.40;99.90
78289;DHT22;67539;48.752;12.922;2024-02-14T11:33:31;9.40;99.90
78289;DHT22;67539;48.752;12.922;2024-02-14T11:36:07;9.40;99.90
78289;DHT22;67539;48.752;12.922;2024-02-14T11:38:39;9.40;99.90
78289;DHT22;67539;48.752;12.922;2024-02-14T11:41:10;9.50;99.90
78289;DHT22;67539;48.752;12.922;2024-02-14T11:43:38;9.50;99.90
78289;DHT22;67539;48.752;12.922;2024-02-14T11:46:08;9.50;99.90
78289;DHT22;67539;48.752;12.922;2024-02-14T11:48:37;9.40;99.90
78289;DHT22;67539;48.752;12.922;2024-02-14T11:51:07;9.40;99.90
78289;DHT22;67539;48.752;12.922;2024-02-14T11:53:37;9.40;99.90
78289;DHT22;67539;48.752;12.922;2024-02-14T11:56:08;9.40;99.90
78289;DHT22;67539;48.752;12.922;2024-02-14T11:58:36;9.40;99.90
78289;DHT22;67539;48.752;12.922;2024-02-14T12:01:04;9.40;99.90
78289;DHT22;67539;48.752;12.922;2024-02-14T12:03:34;9.50;99.90
78289;DHT22;67539;48.752;12.922;2024-02-14T12:06:06;9.50;99.90
78289;DHT22;67539;48.752;12.922;2024-02-14T12:08:34;9.50;99.90
78289;DHT22;67539;48.752;12.922;2024-02-14T12:11:02;9.60;99.90
78289;DHT22;67539;48.752;12.922;2024-02-14T12:13:31;9.60;99.90
78289;DHT22;67539;48.752;12.922;2024-02-14T12:16:02;9.60;99.90
78289;DHT22;67539;48.752;12.922;2024-02-14T12:18:30;9.60;99.90
78289;DHT22;67539;48.752;12.922;2024-02-14T12:21:05;9.60;99.90
78289;DHT22;67539;48.752;12.922;2024-02-14T12:23:35;9.60;99.90
78289;DHT22;67539;48.752;12.922;2024-02-14T12:26:04;9.70;99.90
78289;DHT22;67539;48.752;12.922;2024-02-14T12:28:32;9.70;99.90
78289;DHT22;67539;48.752;12.922;2024-02-14T12:31:01;9.80;99.90
78289;DHT22;67539;48.752;12.922;2024-02-14T12:33:29;9.90;99.90
78289;DHT22;67539;48.752;12.922;2024-02-14T12:35:59;10.00;99.90
78289;DHT22;67539;48.752;12.922;2024-02-14T12:38:29;10.00;99.90
78289;DHT22;67539;48.752;12.922;2024-02-14T12:40:57;10.00;99.90
78289;DHT22;67539;48.752;12.922;2024-02-14T12:43:25;10.00;99.90
78289;DHT22;67539;48.752;12.922;2024-02-14T12:45:54;10.10;99.90
78289;DHT22;67539;48.752;12.922;2024-02-14T12:48:23;10.10;99.90
78289;DHT22;67539;48.752;12.922;2024-02-14T12:50:54;10.10;99.90
78289;DHT22;67539;48.752;12.922;2024-02-14T12:53:23;10.10;99.90
78289;DHT22;67539;48.752;12.922;2024-02-14T12:55:52;10.10;99.90
78289;DHT22;67539;48.752;12.922;2024-02-14T12:58:21;10.10;99.90
78289;DHT22;67539;48.752;12.922;2024-02-14T13:00:49;10.10;99.90
78289;DHT22;67539;48.752;12.922;2024-02-14T13:03:17;10.10;99.90
78289;DHT22;67539;48.752;12.922;2024-02-14T13:05:46;10.10;99.90
78289;DHT22;67539;48.752;12.922;2024-02-14T13:08:15;10.10;99.90
78289;DHT22;67539;48.752;12.922;2024-02-14T13:10:44;10.10;99.90
78289;DHT22;67539;48.752;12.922;2024-02-14T13:13:13;10.10;99.90
78289;DHT22;67539;48.752;12.922;2024-02-14T13:15:42;10.20;99.90
78289;DHT22;67539;48.752;12.922;2024-02-14T13:18:12;10.20;99.90
78289;DHT22;67539;48.752;12.922;2024-02-14T13:20:40;10.20;99.90
78289;DHT22;67539;48.752;12.922;2024-02-14T13:23:09;10.20;99.90
78289;DHT22;67539;48.752;12.922;2024-02-14T13:25:37;10.10;99.90
78289;DHT22;67539;48.752;12.922;2024-02-14T13:28:06;10.10;99.90
78289;DHT22;67539;48.752;12.922;2024-02-14T13:30:35;10.10;99.90
78289;DHT22;67539;48.752;12.922;2024-02-14T13:33:05;10.00;99.90
78289;DHT22;67539;48.752;12.922;2024-02-14T13:35:33;10.00;99.90
78289;DHT22;67539;48.752;12.922;2024-02-14T13:38:05;9.90;99.90
78289;DHT22;67539;48.752;12.922;2024-02-14T13:40:33;9.90;99.90
78289;DHT22;67539;48.752;12.922;2024-02-14T13:43:02;9.80;99.90
78289;DHT22;67539;48.752;12.922;2024-02-14T13:45:41;9.80;99.90
78289;DHT22;67539;48.752;12.922;2024-02-14T13:48:11;9.80;99.90
78289;DHT22;67539;48.752;12.922;2024-02-14T13:50:39;9.70;99.90
78289;DHT22;67539;48.752;12.922;2024-02-14T13:53:08;9.60;99.90
78289;DHT22;67539;48.752;12.922;2024-02-14T13:55:37;9.60;99.90
78289;DHT22;67539;48.752;12.922;2024-02-14T13:58:06;9.50;99.90
78289;DHT22;67539;48.752;12.922;2024-02-14T14:00:38;9.50;99.90
78289;DHT22;67539;48.752;12.922;2024-02-14T14:03:07;9.50;99.90
78289;DHT22;67539;48.752;12.922;2024-02-14T14:05:35;9.40;99.90
78289;DHT22;67539;48.752;12.922;2024-02-14T14:08:04;9.40;99.90
78289;DHT22;67539;48.752;12.922;2024-02-14T14:10:33;9.30;99.90
78289;DHT22;67539;48.752;12.922;2024-02-14T14:13:01;9.20;99.90
78289;DHT22;67539;48.752;12.922;2024-02-14T14:15:30;9.20;99.90
78289;DHT22;67539;48.752;12.922;2024-02-14T14:18:00;9.20;99.90
78289;DHT22;67539;48.752;12.922;2024-02-14T14:20:29;9.10;99.90
78289;DHT22;67539;48.752;12.922;2024-02-14T14:22:58;9.00;99.90
78289;DHT22;67539;48.752;12.922;2024-02-14T14:25:27;8.90;99.90
78289;DHT22;67539;48.752;12.922;2024-02-14T14:27:57;8.90;99.90
78289;DHT22;67539;48.752;12.922;2024-02-14T14:30:26;8.90;99.90
78289;DHT22;67539;48.752;12.922;2024-02-14T14:32:54;8.90;99.90
78289;DHT22;67539;48.752;12.922;2024-02-14T14:35:24;8.90;99.90
78289;DHT22;67539;48.752;12.922;2024-02-14T14:37:53;8.90;99.90
78289;DHT22;67539;48.752;12.922;2024-02-14T14:40:22;8.90;99.90
78289;DHT22;67539;48.752;12.922;2024-02-14T14:42:51;8.80;99.90
78289;DHT22;67539;48.752;12.922;2024-02-14T14:45:20;8.70;99.90
78289;DHT22;67539;48.752;12.922;2024-02-14T14:47:48;8.70;99.90
78289;DHT22;67539;48.752;12.922;2024-02-14T14:50:17;8.60;99.90
78289;DHT22;67539;48.752;12.922;2024-02-14T14:52:46;8.60;99.90
78289;DHT22;67539;48.752;12.922;2024-02-14T14:55:16;8.60;99.90
78289;DHT22;67539;48.752;12.922;2024-02-14T14:57:44;8.60;99.90
78289;DHT22;67539;48.752;12.922;2024-02-14T15:00:13;8.60;99.90
78289;DHT22;67539;48.752;12.922;2024-02-14T15:02:41;8.60;99.90
78289;DHT22;67539;48.752;12.922;2024-02-14T15:05:10;8.60;99.90
78289;DHT22;67539;48.752;12.922;2024-02-14T15:07:39;8.60;99.90
78289;DHT22;67539;48.752;12.922;2024-02-14T15:10:07;8.60;99.90
78289;DHT22;67539;48.752;12.922;2024-02-14T15:12:38;8.50;99.90
78289;DHT22;67539;48.752;12.922;2024-02-14T15:15:07;8.50;99.90
78289;DHT22;67539;48.752;12.922;2024-02-14T15:17:38;8.50;99.90
78289;DHT22;67539;48.752;12.922;2024-02-14T15:20:07;8.40;99.90
78289;DHT22;67539;48.752;12.922;2024-02-14T15:22:36;8.40;99.90
78289;DHT22;67539;48.752;12.922;2024-02-14T15:25:04;8.40;99.90
78289;DHT22;67539;48.752;12.922;2024-02-14T15:27:33;8.40;99.90
78289;DHT22;67539;48.752;12.922;2024-02-14T15:30:09;8.40;99.90
78289;DHT22;67539;48.752;12.922;2024-02-14T15:32:55;8.40;99.90
78289;DHT22;67539;48.752;12.922;2024-02-14T15:35:42;8.30;99.90
78289;DHT22;67539;48.752;12.922;2024-02-14T15:38:10;8.30;99.90
78289;DHT22;67539;48.752;12.922;2024-02-14T15:40:39;8.30;99.90
78289;DHT22;67539;48.752;12.922;2024-02-14T15:43:07;8.30;99.90